sensor_id;sensor_type;location;lat;lon;timestamp;P1;durP1;ratioP1;P2;durP2;ratioP2
7199;SDS011;3641;49.082;8.200;2023-01-23T00:02:02;26.42;;;14.23;;
7199;SDS011;3641;49.082;8.200;2023-01-23T00:04:28;26.65;;;14.07;;
7199;SDS011;3641;49.082;8.200;2023-01-23T00:06:54;25.70;;;14.32;;
7199;SDS011;3641;49.082;8.200;2023-01-23T00:09:21;25.00;;;14.02;;
7199;SDS011;3641;49.082;8.200;2023-01-23T00:11:49;26.77;;;14.25;;
7199;SDS011;3641;49.082;8.200;2023-01-23T00:14:15;27.60;;;14.27;;
7199;SDS011;3641;49.082;8.200;2023-01-23T00:16:42;25.27;;;13.98;;
7199;SDS011;3641;49.082;8.200;2023-01-23T00:19:09;26.17;;;14.43;;
7199;SDS011;3641;49.082;8.200;2023-01-23T00:21:35;27.10;;;14.32;;
7199;SDS011;3641;49.082;8.200;2023-01-23T00:24:02;27.10;;;14.68;;
7199;SDS011;3641;49.082;8.200;2023-01-23T00:26:29;24.80;;;13.88;;
7199;SDS011;3641;49.082;8.200;2023-01-23T00:28:59;26.73;;;13.98;;
7199;SDS011;3641;49.082;8.200;2023-01-23T00:31:28;28.27;;;14.45;;
7199;SDS011;3641;49.082;8.200;2023-01-23T00:33:57;26.30;;;13.75;;
7199;SDS011;3641;49.082;8.200;2023-01-23T00:36:26;26.13;;;14.50;;
7199;SDS011;3641;49.082;8.200;2023-01-23T00:38:54;27.15;;;14.35;;
7199;SDS011;3641;49.082;8.200;2023-01-23T00:41:20;26.73;;;14.75;;
7199;SDS011;3641;49.082;8.200;2023-01-23T00:43:47;26.25;;;14.57;;
7199;SDS011;3641;49.082;8.200;2023-01-23T00:46:17;25.83;;;14.30;;
7199;SDS011;3641;49.082;8.200;2023-01-23T00:48:43;27.40;;;15.07;;
7199;SDS011;3641;49.082;8.200;2023-01-23T00:51:10;27.33;;;14.82;;
7199;SDS011;3641;49.082;8.200;2023-01-23T00:53:36;24.67;;;14.60;;
7199;SDS011;3641;49.082;8.200;2023-01-23T00:56:03;25.08;;;14.13;;
7199;SDS011;3641;49.082;8.200;2023-01-23T00:58:30;26.77;;;14.38;;
7199;SDS011;3641;49.082;8.200;2023-01-23T01:00:56;27.23;;;14.75;;
7199;SDS011;3641;49.082;8.200;2023-01-23T01:03:24;29.92;;;15.02;;
7199;SDS011;3641;49.082;8.200;2023-01-23T01:05:51;27.92;;;14.52;;
7199;SDS011;3641;49.082;8.200;2023-01-23T01:08:18;26.52;;;15.18;;
7199;SDS011;3641;49.082;8.200;2023-01-23T01:10:44;30.30;;;15.70;;
7199;SDS011;3641;49.082;8.200;2023-01-23T01:13:11;28.83;;;15.80;;
7199;SDS011;3641;49.082;8.200;2023-01-23T01:15:38;25.48;;;14.05;;
7199;SDS011;3641;49.082;8.200;2023-01-23T01:18:05;27.42;;;15.15;;
7199;SDS011;3641;49.082;8.200;2023-01-23T01:20:33;28.73;;;15.45;;
7199;SDS011;3641;49.082;8.200;2023-01-23T01:22:59;27.40;;;14.57;;
7199;SDS011;3641;49.082;8.200;2023-01-23T01:25:26;26.80;;;14.20;;
7199;SDS011;3641;49.082;8.200;2023-01-23T01:27:52;27.92;;;14.50;;
7199;SDS011;3641;49.082;8.200;2023-01-23T01:30:20;27.27;;;14.60;;
7199;SDS011;3641;49.082;8.200;2023-01-23T01:32:46;27.40;;;15.27;;
7199;SDS011;3641;49.082;8.200;2023-01-23T01:35:12;31.20;;;16.13;;
7199;SDS011;3641;49.082;8.200;2023-01-23T01:37:40;27.92;;;14.88;;
7199;SDS011;3641;49.082;8.200;2023-01-23T01:40:08;28.30;;;16.10;;
7199;SDS011;3641;49.082;8.200;2023-01-23T01:42:38;29.88;;;15.52;;
7199;SDS011;3641;49.082;8.200;2023-01-23T01:45:06;35.05;;;16.65;;
7199;SDS011;3641;49.082;8.200;2023-01-23T01:47:47;31.58;;;16.83;;
7199;SDS011;3641;49.082;8.200;2023-01-23T01:50:14;32.75;;;15.82;;
7199;SDS011;3641;49.082;8.200;2023-01-23T01:52:42;33.00;;;16.42;;
7199;SDS011;3641;49.082;8.200;2023-01-23T01:55:08;29.42;;;14.88;;
7199;SDS011;3641;49.082;8.200;2023-01-23T01:57:36;31.27;;;15.85;;
7199;SDS011;3641;49.082;8.200;2023-01-23T02:00:07;28.63;;;15.20;;
7199;SDS011;3641;49.082;8.200;2023-01-23T02:02:36;32.10;;;16.27;;
7199;SDS011;3641;49.082;8.200;2023-01-23T02:05:06;31.20;;;15.95;;
7199;SDS011;3641;49.082;8.200;2023-01-23T02:07:36;30.25;;;15.35;;
7199;SDS011;3641;49.082;8.200;2023-01-23T02:10:08;29.90;;;15.98;;
7199;SDS011;3641;49.082;8.200;2023-01-23T02:12:35;32.80;;;16.02;;
7199;SDS011;3641;49.082;8.200;2023-01-23T02:15:03;32.90;;;16.95;;
7199;SDS011;3641;49.082;8.200;2023-01-23T02:17:32;31.20;;;16.77;;
7199;SDS011;3641;49.082;8.200;2023-01-23T02:20:07;32.03;;;16.50;;
7199;SDS011;3641;49.082;8.200;2023-01-23T02:22:39;31.08;;;15.90;;
7199;SDS011;3641;49.082;8.200;2023-01-23T02:25:17;32.10;;;16.55;;
7199;SDS011;3641;49.082;8.200;2023-01-23T02:27:52;32.00;;;16.33;;
7199;SDS011;3641;49.082;8.200;2023-01-23T02:30:18;32.28;;;16.33;;
7199;SDS011;3641;49.082;8.200;2023-01-23T02:32:46;33.13;;;16.70;;
7199;SDS011;3641;49.082;8.200;2023-01-23T02:35:14;32.30;;;16.45;;
7199;SDS011;3641;49.082;8.200;2023-01-23T02:37:44;29.65;;;14.77;;
7199;SDS011;3641;49.082;8.200;2023-01-23T02:40:14;30.92;;;15.88;;
7199;SDS011;3641;49.082;8.200;2023-01-23T02:42:41;27.38;;;14.25;;
7199;SDS011;3641;49.082;8.200;2023-01-23T02:45:11;29.88;;;14.45;;
7199;SDS011;3641;49.082;8.200;2023-01-23T02:47:38;29.67;;;15.32;;
7199;SDS011;3641;49.082;8.200;2023-01-23T02:50:05;32.67;;;14.85;;
7199;SDS011;3641;49.082;8.200;2023-01-23T02:52:31;29.92;;;14.52;;
7199;SDS011;3641;49.082;8.200;2023-01-23T02:54:58;28.17;;;14.70;;
7199;SDS011;3641;49.082;8.200;2023-01-23T02:57:24;28.17;;;14.60;;
7199;SDS011;3641;49.082;8.200;2023-01-23T02:59:51;32.00;;;15.52;;
7199;SDS011;3641;49.082;8.200;2023-01-23T03:02:36;27.70;;;14.98;;
7199;SDS011;3641;49.082;8.200;2023-01-23T03:05:03;29.30;;;14.90;;
7199;SDS011;3641;49.082;8.200;2023-01-23T03:07:30;30.25;;;14.82;;
7199;SDS011;3641;49.082;8.200;2023-01-23T03:09:57;31.80;;;15.48;;
7199;SDS011;3641;49.082;8.200;2023-01-23T03:12:23;27.75;;;14.40;;
7199;SDS011;3641;49.082;8.200;2023-01-23T03:14:50;27.48;;;14.40;;
7199;SDS011;3641;49.082;8.200;2023-01-23T03:17:18;28.63;;;14.73;;
7199;SDS011;3641;49.082;8.200;2023-01-23T03:19:46;28.65;;;14.95;;
7199;SDS011;3641;49.082;8.200;2023-01-23T03:22:13;29.67;;;14.82;;
7199;SDS011;3641;49.082;8.200;2023-01-23T03:24:40;27.88;;;14.85;;
7199;SDS011;3641;49.082;8.200;2023-01-23T03:27:06;26.98;;;13.88;;
7199;SDS011;3641;49.082;8.200;2023-01-23T03:29:33;28.65;;;14.57;;
7199;SDS011;3641;49.082;8.200;2023-01-23T03:32:17;30.27;;;14.23;;
7199;SDS011;3641;49.082;8.200;2023-01-23T03:34:44;28.38;;;15.32;;
7199;SDS011;3641;49.082;8.200;2023-01-23T03:37:12;27.95;;;14.65;;
7199;SDS011;3641;49.082;8.200;2023-01-23T03:39:41;28.92;;;14.05;;
7199;SDS011;3641;49.082;8.200;2023-01-23T03:42:25;26.38;;;14.30;;
7199;SDS011;3641;49.082;8.200;2023-01-23T03:44:51;30.33;;;13.98;;
7199;SDS011;3641;49.082;8.200;2023-01-23T03:47:18;26.98;;;13.57;;
7199;SDS011;3641;49.082;8.200;2023-01-23T03:49:47;26.48;;;13.95;;
7199;SDS011;3641;49.082;8.200;2023-01-23T03:52:13;28.92;;;15.23;;
7199;SDS011;3641;49.082;8.200;2023-01-23T03:54:40;33.28;;;14.82;;
7199;SDS011;3641;49.082;8.200;2023-01-23T03:57:06;31.10;;;14.93;;
7199;SDS011;3641;49.082;8.200;2023-01-23T03:59:33;24.42;;;12.82;;
7199;SDS011;3641;49.082;8.200;2023-01-23T04:01:59;25.55;;;13.45;;
7199;SDS011;3641;49.082;8.200;2023-01-23T04:04:28;25.05;;;12.38;;
7199;SDS011;3641;49.082;8.200;2023-01-23T04:06:56;26.20;;;13.30;;
7199;SDS011;3641;49.082;8.200;2023-01-23T04:09:23;24.65;;;12.50;;
7199;SDS011;3641;49.082;8.200;2023-01-23T04:11:51;24.70;;;12.98;;
7199;SDS011;3641;49.082;8.200;2023-01-23T04:14:18;25.13;;;12.45;;
7199;SDS011;3641;49.082;8.200;2023-01-23T04:16:44;25.08;;;13.18;;
7199;SDS011;3641;49.082;8.200;2023-01-23T04:19:11;25.27;;;12.55;;
7199;SDS011;3641;49.082;8.200;2023-01-23T04:21:37;26.92;;;13.55;;
7199;SDS011;3641;49.082;8.200;2023-01-23T04:24:05;28.25;;;12.93;;
7199;SDS011;3641;49.082;8.200;2023-01-23T04:26:32;26.23;;;13.88;;
7199;SDS011;3641;49.082;8.200;2023-01-23T04:28:59;25.83;;;13.32;;
7199;SDS011;3641;49.082;8.200;2023-01-23T04:31:26;25.88;;;13.88;;
7199;SDS011;3641;49.082;8.200;2023-01-23T04:33:52;28.75;;;13.85;;
7199;SDS011;3641;49.082;8.200;2023-01-23T04:36:19;28.35;;;14.52;;
7199;SDS011;3641;49.082;8.200;2023-01-23T04:38:45;27.13;;;13.18;;
7199;SDS011;3641;49.082;8.200;2023-01-23T04:41:14;24.95;;;13.45;;
7199;SDS011;3641;49.082;8.200;2023-01-23T04:43:44;28.08;;;13.35;;
7199;SDS011;3641;49.082;8.200;2023-01-23T04:46:10;28.40;;;13.45;;
7199;SDS011;3641;49.082;8.200;2023-01-23T04:48:37;27.50;;;13.93;;
7199;SDS011;3641;49.082;8.200;2023-01-23T04:51:03;25.52;;;12.57;;
7199;SDS011;3641;49.082;8.200;2023-01-23T04:53:30;26.88;;;13.52;;
7199;SDS011;3641;49.082;8.200;2023-01-23T04:55:56;25.00;;;12.77;;
7199;SDS011;3641;49.082;8.200;2023-01-23T04:58:24;27.88;;;13.82;;
7199;SDS011;3641;49.082;8.200;2023-01-23T05:00:51;24.35;;;13.05;;
7199;SDS011;3641;49.082;8.200;2023-01-23T05:03:18;24.52;;;12.23;;
7199;SDS011;3641;49.082;8.200;2023-01-23T05:05:45;22.98;;;12.55;;
7199;SDS011;3641;49.082;8.200;2023-01-23T05:08:13;24.73;;;12.20;;
7199;SDS011;3641;49.082;8.200;2023-01-23T05:10:39;23.75;;;12.65;;
7199;SDS011;3641;49.082;8.200;2023-01-23T05:13:06;24.23;;;12.82;;
7199;SDS011;3641;49.082;8.200;2023-01-23T05:15:35;21.45;;;11.73;;
7199;SDS011;3641;49.082;8.200;2023-01-23T05:18:01;23.42;;;11.98;;
7199;SDS011;3641;49.082;8.200;2023-01-23T05:20:28;24.23;;;12.77;;
7199;SDS011;3641;49.082;8.200;2023-01-23T05:22:54;30.95;;;14.73;;
7199;SDS011;3641;49.082;8.200;2023-01-23T05:25:21;30.63;;;14.35;;
7199;SDS011;3641;49.082;8.200;2023-01-23T05:27:49;30.25;;;13.27;;
7199;SDS011;3641;49.082;8.200;2023-01-23T05:30:16;25.58;;;13.15;;
7199;SDS011;3641;49.082;8.200;2023-01-23T05:32:46;22.02;;;11.90;;
7199;SDS011;3641;49.082;8.200;2023-01-23T05:35:13;24.00;;;12.25;;
7199;SDS011;3641;49.082;8.200;2023-01-23T05:37:40;22.95;;;11.77;;
7199;SDS011;3641;49.082;8.200;2023-01-23T05:40:07;23.88;;;11.85;;
7199;SDS011;3641;49.082;8.200;2023-01-23T05:42:36;23.25;;;12.07;;
7199;SDS011;3641;49.082;8.200;2023-01-23T05:45:03;23.35;;;11.98;;
7199;SDS011;3641;49.082;8.200;2023-01-23T05:47:30;24.02;;;11.75;;
7199;SDS011;3641;49.082;8.200;2023-01-23T05:49:57;24.35;;;11.73;;
7199;SDS011;3641;49.082;8.200;2023-01-23T05:52:25;26.80;;;12.80;;
7199;SDS011;3641;49.082;8.200;2023-01-23T05:54:51;25.73;;;12.98;;
7199;SDS011;3641;49.082;8.200;2023-01-23T05:57:18;25.38;;;12.25;;
7199;SDS011;3641;49.082;8.200;2023-01-23T05:59:44;26.85;;;12.60;;
7199;SDS011;3641;49.082;8.200;2023-01-23T06:02:10;23.83;;;12.38;;
7199;SDS011;3641;49.082;8.200;2023-01-23T06:04:37;25.27;;;11.95;;
7199;SDS011;3641;49.082;8.200;2023-01-23T06:07:06;23.60;;;11.65;;
7199;SDS011;3641;49.082;8.200;2023-01-23T06:09:33;23.30;;;11.85;;
7199;SDS011;3641;49.082;8.200;2023-01-23T06:11:59;22.85;;;12.15;;
7199;SDS011;3641;49.082;8.200;2023-01-23T06:14:26;24.27;;;12.05;;
7199;SDS011;3641;49.082;8.200;2023-01-23T06:16:52;23.45;;;11.45;;
7199;SDS011;3641;49.082;8.200;2023-01-23T06:19:19;24.80;;;12.95;;
7199;SDS011;3641;49.082;8.200;2023-01-23T06:21:46;24.33;;;12.25;;
7199;SDS011;3641;49.082;8.200;2023-01-23T06:24:13;24.48;;;11.90;;
7199;SDS011;3641;49.082;8.200;2023-01-23T06:26:40;24.33;;;12.63;;
7199;SDS011;3641;49.082;8.200;2023-01-23T06:29:06;23.27;;;12.13;;
7199;SDS011;3641;49.082;8.200;2023-01-23T06:31:33;21.73;;;11.80;;
7199;SDS011;3641;49.082;8.200;2023-01-23T06:34:00;23.48;;;11.70;;
7199;SDS011;3641;49.082;8.200;2023-01-23T06:36:26;25.92;;;13.43;;
7199;SDS011;3641;49.082;8.200;2023-01-23T06:38:52;24.45;;;12.10;;
7199;SDS011;3641;49.082;8.200;2023-01-23T06:41:21;22.38;;;11.02;;
7199;SDS011;3641;49.082;8.200;2023-01-23T06:43:49;19.02;;;10.23;;
7199;SDS011;3641;49.082;8.200;2023-01-23T06:46:17;21.25;;;11.35;;
7199;SDS011;3641;49.082;8.200;2023-01-23T06:48:44;18.88;;;10.23;;
7199;SDS011;3641;49.082;8.200;2023-01-23T06:51:10;21.02;;;11.07;;
7199;SDS011;3641;49.082;8.200;2023-01-23T06:53:37;27.27;;;13.30;;
7199;SDS011;3641;49.082;8.200;2023-01-23T06:56:04;22.52;;;12.20;;
7199;SDS011;3641;49.082;8.200;2023-01-23T06:58:33;21.58;;;11.43;;
7199;SDS011;3641;49.082;8.200;2023-01-23T07:01:06;21.00;;;11.32;;
7199;SDS011;3641;49.082;8.200;2023-01-23T07:03:34;22.17;;;12.07;;
7199;SDS011;3641;49.082;8.200;2023-01-23T07:06:00;21.02;;;11.32;;
7199;SDS011;3641;49.082;8.200;2023-01-23T07:08:30;22.52;;;11.90;;
7199;SDS011;3641;49.082;8.200;2023-01-23T07:10:57;24.15;;;12.30;;
7199;SDS011;3641;49.082;8.200;2023-01-23T07:13:23;24.15;;;12.52;;
7199;SDS011;3641;49.082;8.200;2023-01-23T07:15:51;24.58;;;12.63;;
7199;SDS011;3641;49.082;8.200;2023-01-23T07:18:17;24.75;;;13.57;;
7199;SDS011;3641;49.082;8.200;2023-01-23T07:20:44;23.17;;;12.18;;
7199;SDS011;3641;49.082;8.200;2023-01-23T07:23:11;21.23;;;11.18;;
7199;SDS011;3641;49.082;8.200;2023-01-23T07:25:38;22.15;;;11.35;;
7199;SDS011;3641;49.082;8.200;2023-01-23T07:28:05;21.38;;;11.52;;
7199;SDS011;3641;49.082;8.200;2023-01-23T07:30:31;25.92;;;13.32;;
7199;SDS011;3641;49.082;8.200;2023-01-23T07:33:00;24.10;;;11.57;;
7199;SDS011;3641;49.082;8.200;2023-01-23T07:35:26;22.50;;;11.57;;
7199;SDS011;3641;49.082;8.200;2023-01-23T07:37:53;24.10;;;11.73;;
7199;SDS011;3641;49.082;8.200;2023-01-23T07:40:19;22.85;;;11.63;;
7199;SDS011;3641;49.082;8.200;2023-01-23T07:42:46;23.05;;;11.30;;
7199;SDS011;3641;49.082;8.200;2023-01-23T07:45:12;23.67;;;12.05;;
7199;SDS011;3641;49.082;8.200;2023-01-23T07:47:39;22.60;;;10.70;;
7199;SDS011;3641;49.082;8.200;2023-01-23T07:50:07;25.95;;;13.27;;
7199;SDS011;3641;49.082;8.200;2023-01-23T07:52:36;21.92;;;11.90;;
7199;SDS011;3641;49.082;8.200;2023-01-23T07:55:04;22.75;;;11.65;;
7199;SDS011;3641;49.082;8.200;2023-01-23T07:57:31;25.15;;;12.45;;
7199;SDS011;3641;49.082;8.200;2023-01-23T07:59:58;21.67;;;12.05;;
7199;SDS011;3641;49.082;8.200;2023-01-23T08:02:24;21.38;;;12.00;;
7199;SDS011;3641;49.082;8.200;2023-01-23T08:04:50;22.83;;;12.43;;
7199;SDS011;3641;49.082;8.200;2023-01-23T08:07:18;19.67;;;10.98;;
7199;SDS011;3641;49.082;8.200;2023-01-23T08:09:45;23.88;;;11.35;;
7199;SDS011;3641;49.082;8.200;2023-01-23T08:12:11;22.77;;;11.80;;
7199;SDS011;3641;49.082;8.200;2023-01-23T08:14:38;21.55;;;11.55;;
7199;SDS011;3641;49.082;8.200;2023-01-23T08:17:05;21.92;;;11.98;;
7199;SDS011;3641;49.082;8.200;2023-01-23T08:19:31;23.00;;;11.13;;
7199;SDS011;3641;49.082;8.200;2023-01-23T08:21:58;22.52;;;11.90;;
7199;SDS011;3641;49.082;8.200;2023-01-23T08:24:26;23.23;;;12.00;;
7199;SDS011;3641;49.082;8.200;2023-01-23T08:26:52;21.15;;;11.25;;
7199;SDS011;3641;49.082;8.200;2023-01-23T08:29:19;23.35;;;11.80;;
7199;SDS011;3641;49.082;8.200;2023-01-23T08:31:45;25.70;;;11.98;;
7199;SDS011;3641;49.082;8.200;2023-01-23T08:34:11;24.95;;;12.00;;
7199;SDS011;3641;49.082;8.200;2023-01-23T08:36:38;20.30;;;11.00;;
7199;SDS011;3641;49.082;8.200;2023-01-23T08:39:04;20.02;;;10.55;;
7199;SDS011;3641;49.082;8.200;2023-01-23T08:41:33;20.48;;;11.02;;
7199;SDS011;3641;49.082;8.200;2023-01-23T08:43:59;22.88;;;11.63;;
7199;SDS011;3641;49.082;8.200;2023-01-23T08:46:27;22.10;;;11.52;;
7199;SDS011;3641;49.082;8.200;2023-01-23T08:48:54;25.45;;;11.90;;
7199;SDS011;3641;49.082;8.200;2023-01-23T08:51:21;21.13;;;11.27;;
7199;SDS011;3641;49.082;8.200;2023-01-23T08:53:50;23.00;;;11.55;;
7199;SDS011;3641;49.082;8.200;2023-01-23T08:56:18;24.23;;;12.30;;
7199;SDS011;3641;49.082;8.200;2023-01-23T08:58:47;24.60;;;12.35;;
7199;SDS011;3641;49.082;8.200;2023-01-23T09:01:15;24.58;;;12.80;;
7199;SDS011;3641;49.082;8.200;2023-01-23T09:03:43;22.48;;;11.77;;
7199;SDS011;3641;49.082;8.200;2023-01-23T09:06:10;20.52;;;11.55;;
7199;SDS011;3641;49.082;8.200;2023-01-23T09:08:38;30.08;;;14.05;;
7199;SDS011;3641;49.082;8.200;2023-01-23T09:11:05;27.88;;;13.90;;
7199;SDS011;3641;49.082;8.200;2023-01-23T09:13:33;26.73;;;13.25;;
7199;SDS011;3641;49.082;8.200;2023-01-23T09:16:01;26.52;;;12.90;;
7199;SDS011;3641;49.082;8.200;2023-01-23T09:18:28;23.20;;;11.80;;
7199;SDS011;3641;49.082;8.200;2023-01-23T09:20:55;24.85;;;12.68;;
7199;SDS011;3641;49.082;8.200;2023-01-23T09:23:22;24.60;;;12.20;;
7199;SDS011;3641;49.082;8.200;2023-01-23T09:25:49;25.77;;;12.75;;
7199;SDS011;3641;49.082;8.200;2023-01-23T09:28:16;26.20;;;13.32;;
7199;SDS011;3641;49.082;8.200;2023-01-23T09:30:42;26.45;;;12.70;;
7199;SDS011;3641;49.082;8.200;2023-01-23T09:33:10;26.48;;;13.10;;
7199;SDS011;3641;49.082;8.200;2023-01-23T09:35:36;25.00;;;13.38;;
7199;SDS011;3641;49.082;8.200;2023-01-23T09:38:03;27.80;;;13.35;;
7199;SDS011;3641;49.082;8.200;2023-01-23T09:40:32;29.40;;;13.60;;
7199;SDS011;3641;49.082;8.200;2023-01-23T09:43:01;30.20;;;13.82;;
7199;SDS011;3641;49.082;8.200;2023-01-23T09:45:33;27.65;;;14.60;;
7199;SDS011;3641;49.082;8.200;2023-01-23T09:48:04;27.00;;;13.48;;
7199;SDS011;3641;49.082;8.200;2023-01-23T09:50:42;25.95;;;12.63;;
7199;SDS011;3641;49.082;8.200;2023-01-23T09:53:19;28.25;;;13.27;;
7199;SDS011;3641;49.082;8.200;2023-01-23T09:55:49;24.88;;;12.73;;
7199;SDS011;3641;49.082;8.200;2023-01-23T09:58:22;25.65;;;13.13;;
7199;SDS011;3641;49.082;8.200;2023-01-23T10:00:52;25.85;;;12.15;;
7199;SDS011;3641;49.082;8.200;2023-01-23T10:03:20;26.60;;;13.27;;
7199;SDS011;3641;49.082;8.200;2023-01-23T10:05:54;25.73;;;13.27;;
7199;SDS011;3641;49.082;8.200;2023-01-23T10:08:31;25.75;;;13.02;;
7199;SDS011;3641;49.082;8.200;2023-01-23T10:11:07;25.02;;;12.77;;
7199;SDS011;3641;49.082;8.200;2023-01-23T10:13:47;26.65;;;12.95;;
7199;SDS011;3641;49.082;8.200;2023-01-23T10:16:32;22.92;;;11.93;;
7199;SDS011;3641;49.082;8.200;2023-01-23T10:19:12;23.45;;;12.02;;
7199;SDS011;3641;49.082;8.200;2023-01-23T10:21:47;23.40;;;11.85;;
7199;SDS011;3641;49.082;8.200;2023-01-23T10:24:27;25.55;;;12.60;;
7199;SDS011;3641;49.082;8.200;2023-01-23T10:27:12;24.42;;;12.43;;
7199;SDS011;3641;49.082;8.200;2023-01-23T10:29:44;23.40;;;11.93;;
7199;SDS011;3641;49.082;8.200;2023-01-23T10:32:16;22.23;;;12.00;;
7199;SDS011;3641;49.082;8.200;2023-01-23T10:34:52;22.77;;;11.27;;
7199;SDS011;3641;49.082;8.200;2023-01-23T10:37:24;23.73;;;11.93;;
7199;SDS011;3641;49.082;8.200;2023-01-23T10:40:02;24.92;;;12.25;;
7199;SDS011;3641;49.082;8.200;2023-01-23T10:42:32;21.50;;;12.18;;
7199;SDS011;3641;49.082;8.200;2023-01-23T10:44:59;23.88;;;12.23;;
7199;SDS011;3641;49.082;8.200;2023-01-23T10:47:26;21.10;;;11.35;;
7199;SDS011;3641;49.082;8.200;2023-01-23T10:49:58;20.88;;;10.60;;
7199;SDS011;3641;49.082;8.200;2023-01-23T10:52:29;18.83;;;10.48;;
7199;SDS011;3641;49.082;8.200;2023-01-23T10:55:01;23.80;;;11.93;;
7199;SDS011;3641;49.082;8.200;2023-01-23T10:57:31;23.40;;;11.68;;
7199;SDS011;3641;49.082;8.200;2023-01-23T11:00:16;21.30;;;10.98;;
7199;SDS011;3641;49.082;8.200;2023-01-23T11:02:47;21.85;;;11.20;;
7199;SDS011;3641;49.082;8.200;2023-01-23T11:08:02;21.73;;;11.00;;
7199;SDS011;3641;49.082;8.200;2023-01-23T11:10:29;23.60;;;11.52;;
7199;SDS011;3641;49.082;8.200;2023-01-23T11:12:55;19.17;;;11.05;;
7199;SDS011;3641;49.082;8.200;2023-01-23T11:15:23;22.10;;;11.93;;
7199;SDS011;3641;49.082;8.200;2023-01-23T11:17:52;18.25;;;10.27;;
7199;SDS011;3641;49.082;8.200;2023-01-23T11:20:21;21.15;;;10.35;;
7199;SDS011;3641;49.082;8.200;2023-01-23T11:23:00;24.15;;;11.48;;
7199;SDS011;3641;49.082;8.200;2023-01-23T11:25:29;20.40;;;11.10;;
7199;SDS011;3641;49.082;8.200;2023-01-23T11:27:59;20.52;;;10.75;;
7199;SDS011;3641;49.082;8.200;2023-01-23T11:30:33;20.50;;;10.80;;
7199;SDS011;3641;49.082;8.200;2023-01-23T11:33:08;18.90;;;10.10;;
7199;SDS011;3641;49.082;8.200;2023-01-23T11:35:44;23.13;;;11.45;;
7199;SDS011;3641;49.082;8.200;2023-01-23T11:38:25;21.45;;;10.23;;
7199;SDS011;3641;49.082;8.200;2023-01-23T11:40:54;22.42;;;11.65;;
7199;SDS011;3641;49.082;8.200;2023-01-23T11:43:21;22.42;;;11.68;;
7199;SDS011;3641;49.082;8.200;2023-01-23T11:45:53;22.98;;;11.48;;
7199;SDS011;3641;49.082;8.200;2023-01-23T11:48:33;22.55;;;11.45;;
7199;SDS011;3641;49.082;8.200;2023-01-23T11:51:10;18.77;;;10.05;;
7199;SDS011;3641;49.082;8.200;2023-01-23T11:53:45;21.27;;;10.68;;
7199;SDS011;3641;49.082;8.200;2023-01-23T11:56:26;20.02;;;10.73;;
7199;SDS011;3641;49.082;8.200;2023-01-23T11:59:15;22.50;;;10.48;;
7199;SDS011;3641;49.082;8.200;2023-01-23T12:05:14;19.92;;;10.73;;
7199;SDS011;3641;49.082;8.200;2023-01-23T12:07:55;20.52;;;10.77;;
7199;SDS011;3641;49.082;8.200;2023-01-23T12:10:34;21.75;;;10.50;;
7199;SDS011;3641;49.082;8.200;2023-01-23T12:13:15;19.63;;;9.95;;
7199;SDS011;3641;49.082;8.200;2023-01-23T12:15:59;20.52;;;9.50;;
7199;SDS011;3641;49.082;8.200;2023-01-23T12:18:36;18.85;;;10.32;;
7199;SDS011;3641;49.082;8.200;2023-01-23T12:21:10;18.88;;;9.80;;
7199;SDS011;3641;49.082;8.200;2023-01-23T12:23:56;21.42;;;10.95;;
7199;SDS011;3641;49.082;8.200;2023-01-23T12:26:35;19.85;;;10.45;;
7199;SDS011;3641;49.082;8.200;2023-01-23T12:29:27;20.85;;;10.18;;
7199;SDS011;3641;49.082;8.200;2023-01-23T12:32:11;24.33;;;12.27;;
7199;SDS011;3641;49.082;8.200;2023-01-23T12:34:55;19.98;;;10.00;;
7199;SDS011;3641;49.082;8.200;2023-01-23T12:37:36;22.20;;;10.82;;
7199;SDS011;3641;49.082;8.200;2023-01-23T12:40:14;20.60;;;11.38;;
7199;SDS011;3641;49.082;8.200;2023-01-23T12:42:48;18.08;;;9.63;;
7199;SDS011;3641;49.082;8.200;2023-01-23T12:45:20;20.83;;;10.85;;
7199;SDS011;3641;49.082;8.200;2023-01-23T12:47:51;21.95;;;11.00;;
7199;SDS011;3641;49.082;8.200;2023-01-23T12:50:31;23.73;;;10.52;;
7199;SDS011;3641;49.082;8.200;2023-01-23T12:53:03;19.98;;;10.50;;
7199;SDS011;3641;49.082;8.200;2023-01-23T12:55:33;23.60;;;11.77;;
7199;SDS011;3641;49.082;8.200;2023-01-23T12:58:04;18.88;;;10.55;;
7199;SDS011;3641;49.082;8.200;2023-01-23T13:00:39;19.75;;;10.93;;
7199;SDS011;3641;49.082;8.200;2023-01-23T13:03:19;23.27;;;11.23;;
7199;SDS011;3641;49.082;8.200;2023-01-23T13:05:55;24.42;;;12.02;;
7199;SDS011;3641;49.082;8.200;2023-01-23T13:08:33;21.73;;;12.13;;
7199;SDS011;3641;49.082;8.200;2023-01-23T13:11:05;19.08;;;10.38;;
7199;SDS011;3641;49.082;8.200;2023-01-23T13:13:56;19.70;;;10.63;;
7199;SDS011;3641;49.082;8.200;2023-01-23T13:16:24;25.20;;;12.13;;
7199;SDS011;3641;49.082;8.200;2023-01-23T13:18:54;22.02;;;11.18;;
7199;SDS011;3641;49.082;8.200;2023-01-23T13:21:39;20.85;;;11.75;;
7199;SDS011;3641;49.082;8.200;2023-01-23T13:24:28;18.55;;;10.55;;
7199;SDS011;3641;49.082;8.200;2023-01-23T13:27:38;18.48;;;9.77;;
7199;SDS011;3641;49.082;8.200;2023-01-23T13:36:13;21.05;;;11.50;;
7199;SDS011;3641;49.082;8.200;2023-01-23T13:38:53;21.60;;;10.45;;
7199;SDS011;3641;49.082;8.200;2023-01-23T13:41:28;20.60;;;10.68;;
7199;SDS011;3641;49.082;8.200;2023-01-23T13:44:00;21.38;;;10.73;;
7199;SDS011;3641;49.082;8.200;2023-01-23T13:46:36;21.17;;;10.50;;
7199;SDS011;3641;49.082;8.200;2023-01-23T13:49:15;21.60;;;11.48;;
7199;SDS011;3641;49.082;8.200;2023-01-23T13:52:08;20.35;;;10.55;;
7199;SDS011;3641;49.082;8.200;2023-01-23T13:54:50;20.25;;;10.27;;
7199;SDS011;3641;49.082;8.200;2023-01-23T13:57:35;18.45;;;10.68;;
7199;SDS011;3641;49.082;8.200;2023-01-23T14:00:02;20.05;;;10.00;;
7199;SDS011;3641;49.082;8.200;2023-01-23T14:02:32;18.63;;;9.68;;
7199;SDS011;3641;49.082;8.200;2023-01-23T14:05:20;20.77;;;10.52;;
7199;SDS011;3641;49.082;8.200;2023-01-23T14:07:50;18.90;;;9.57;;
7199;SDS011;3641;49.082;8.200;2023-01-23T14:10:27;22.80;;;10.93;;
7199;SDS011;3641;49.082;8.200;2023-01-23T14:13:01;18.77;;;10.48;;
7199;SDS011;3641;49.082;8.200;2023-01-23T14:15:32;20.05;;;9.80;;
7199;SDS011;3641;49.082;8.200;2023-01-23T14:18:22;19.20;;;10.43;;
7199;SDS011;3641;49.082;8.200;2023-01-23T14:20:53;21.77;;;10.27;;
7199;SDS011;3641;49.082;8.200;2023-01-23T14:23:28;18.73;;;10.10;;
7199;SDS011;3641;49.082;8.200;2023-01-23T14:25:59;19.38;;;10.13;;
7199;SDS011;3641;49.082;8.200;2023-01-23T14:28:26;18.73;;;10.07;;
7199;SDS011;3641;49.082;8.200;2023-01-23T14:30:53;20.30;;;10.18;;
7199;SDS011;3641;49.082;8.200;2023-01-23T14:33:22;21.15;;;9.73;;
7199;SDS011;3641;49.082;8.200;2023-01-23T14:35:49;18.63;;;9.85;;
7199;SDS011;3641;49.082;8.200;2023-01-23T14:38:26;17.40;;;9.68;;
7199;SDS011;3641;49.082;8.200;2023-01-23T14:40:57;20.33;;;9.77;;
7199;SDS011;3641;49.082;8.200;2023-01-23T14:43:24;19.23;;;10.25;;
7199;SDS011;3641;49.082;8.200;2023-01-23T14:45:56;20.10;;;10.30;;
7199;SDS011;3641;49.082;8.200;2023-01-23T14:48:27;18.83;;;10.90;;
7199;SDS011;3641;49.082;8.200;2023-01-23T14:51:00;20.60;;;10.93;;
7199;SDS011;3641;49.082;8.200;2023-01-23T14:53:32;17.83;;;9.52;;
7199;SDS011;3641;49.082;8.200;2023-01-23T14:55:59;22.08;;;10.88;;
7199;SDS011;3641;49.082;8.200;2023-01-23T14:58:26;20.50;;;9.80;;
7199;SDS011;3641;49.082;8.200;2023-01-23T15:00:53;19.98;;;10.52;;
7199;SDS011;3641;49.082;8.200;2023-01-23T15:03:35;19.80;;;10.13;;
7199;SDS011;3641;49.082;8.200;2023-01-23T15:06:04;22.92;;;11.70;;
7199;SDS011;3641;49.082;8.200;2023-01-23T15:08:33;19.65;;;11.40;;
7199;SDS011;3641;49.082;8.200;2023-01-23T15:11:01;21.83;;;11.48;;
7199;SDS011;3641;49.082;8.200;2023-01-23T15:13:32;19.20;;;10.02;;
7199;SDS011;3641;49.082;8.200;2023-01-23T15:16:02;20.75;;;11.02;;
7199;SDS011;3641;49.082;8.200;2023-01-23T15:18:31;18.63;;;10.45;;